Historyczne dane pomiarowe

Dodano dane terminowe – wersja testowa.

Dane z okresu 1951-2019

Wersja bazy: 1.34 [2019-03-16, lista zmian], aktualizacja planowana na 2019-04-15

Dane meteo z obszaru Polski uzyskane na podstawie danych udostępnionych przez Instytut Meteorologii i Gospodarki Wodnej – Państwowy Instytut Badawczy.

 

Wybierz Datę:    

       

TemperaturaWilgotnośćWiatrCiśnienieOpadyŚniegCzas trwania zjawisk
 Stacja t tx tn tng RH VA  wxwx mslp ppp RRR   cm mm wxwxwxwxwxwxwx
2012-10-10 5.9 10.8 2.0--- 5.0 1.0---- 0.0------------
2012-10-09 5.7 14.8 -0.2--- 5.0 1.3---- 0.0------------
2012-10-08 6.0 9.3 4.2--- 8.0 1.3---- 2.1------------
2012-10-07 9.9 14.5 5.9--- 7.7 1.0---- 15.3------------
2012-10-06 12.1 23.3 4.5--- 3.0 1.3---- 0.0------------
2012-10-05 10.1 16.3 6.4--- 3.0 0.3---- 0.0------------
2012-10-04 10.9 20.3 3.5--- 5.0 0.7---- 4.1------------
2012-10-03 11.7 15.3 9.7--- 6.3 1.0---- 0.6------------
2012-10-02 13.2 19.3 8.6--- 8.0 0.0---- 14.3------------
2012-10-01 14.5 23.2 6.4--- 5.7 1.0---- 0.1------------
2012-09-30 12.4 16.7 10.5--- 4.7 0.7---- 0.5------------
2012-09-29 11.0 20.3 3.0--- 6.0 1.3---- 3.2------------
2012-09-28 12.2 18.2 9.4--- 1.7 2.0---- 0.0------------
2012-09-27 16.0 24.6 10.2--- 6.0 0.7---- 4.4------------
2012-09-26 13.4 24.3 5.5--- 3.3 2.0---- 0.0------------
2012-09-25 13.2 19.1 8.6--- 5.0 0.7---- 0.0------------
2012-09-24 11.4 22.2 2.7--- 3.7 2.7---- 0.0------------
2012-09-23 8.8 16.2 4.7--- 4.0 1.0---- 0.0------------
2012-09-22 7.5 15.2 0.7--- 6.3 0.7---- 0.0------------
2012-09-21 7.0 15.1 1.7--- 4.7 1.0---- 0.0------------
2012-09-20 7.1 9.5 5.9--- 6.7 0.3---- 9.4------------
2012-09-19 11.1 20.5 6.4--- 8.0 0.7---- 15.0------------
2012-09-18 12.4 23.0 4.4--- 4.3 0.7---- 0.0------------
2012-09-17 11.3 21.2 4.1--- 6.0 1.3---- 0.0------------
2012-09-16 11.8 16.5 8.6--- 5.7 0.0---- 0.0------------
2012-09-15 12.1 16.0 9.6--- 7.0 1.3---- 0.0------------
2012-09-14 10.7 12.3 9.0--- 8.0 0.0---- 1.5------------
2012-09-13 12.7 20.3 9.4--- 8.0 0.3---- 0.1------------
2012-09-12 16.5 27.3 7.4--- 3.7 1.3---- 0.0------------
2012-09-11 16.0 28.3 7.3--- 3.0 0.7---- 0.0------------
2012-09-10 15.8 27.7 7.1--- 4.3 1.7---- 0.0------------
2012-09-09 17.5 23.8 13.2--- 3.7 1.0---- 0.0------------
2012-09-08 15.7 19.3 12.9--- 7.7 1.7---- 0.0------------
2012-09-07 11.2 20.0 3.4--- 5.7 1.3---- 0.0------------
2012-09-06 14.7 20.3 11.4--- 7.7 0.7---- 0.6------------
2012-09-05 16.8 24.4 10.5--- 7.3 1.0---- 2.6------------
2012-09-04 17.5 22.6 13.5--- 7.0 1.0---- 0.0------------
2012-09-03 18.0 27.6 12.6--- 7.3 1.0---- 0.0------------
2012-09-02 18.7 24.8 15.2--- 5.7 1.7---- 0.0------------
2012-09-01 15.8 19.9 12.7--- 8.0 1.0---- 0.0------------
2012-08-31 16.7 26.5 8.9--- 3.3 1.3---- 0.0------------
2012-08-30 15.8 27.3 7.1--- 4.0 0.7---- 0.0------------
2012-08-29 13.2 23.8 5.1--- 6.3 1.0---- 0.0------------
2012-08-28 13.0 23.3 5.5--- 3.3 0.7---- 0.0------------
2012-08-27 14.8 19.1 13.0--- 6.7 2.3---- 0.8------------
2012-08-26 16.8 22.8 12.1--- 5.0 0.3---- 5.6------------
2012-08-25 19.5 27.8 13.9--- 4.7 1.0---- 0.0------------
2012-08-24 19.9 30.8 13.5--- 4.0 0.3---- 0.3------------
2012-08-23 20.0 29.3 13.7--- 4.7 0.3---- 0.1------------
2012-08-22 21.3 31.3 13.6--- 4.0 1.7---- 0.0------------
2012-08-21 20.1 27.8 13.8--- 5.7 0.7---- 0.0------------
2012-08-20 20.0 32.8 9.3--- 1.0 1.3---- 0.0------------
2012-08-19 17.0 28.0 8.3--- 3.0 0.7---- 0.0------------
2012-08-18 16.1 24.5 9.4--- 4.0 0.7---- 0.0------------
2012-08-17 15.0 20.3 10.4--- 7.0 0.3---- 0.0------------
2012-08-16 15.2 22.1 8.8--- 3.7 1.3---- 0.0------------
2012-08-15 14.8 18.6 12.0--- 8.0 1.0---- 0.0------------
2012-08-14 12.3 14.8 8.3--- 8.0 2.3---- 1.9------------
2012-08-13 12.0 16.8 7.7--- 6.0 0.7---- 0.0------------
2012-08-12 12.7 16.6 10.2--- 8.0 0.3---- 0.3------------
392.9 ms

 

Źródłem pochodzenia danych jest Instytut Meteorologii i Gospodarki Wodnej – Państwowy Instytut Badawczy. Dane Instytutu Meteorologii i Gospodarki Wodnej – Państwowego Instytutu Badawczego zostały przetworzone.

Dane źródłowe można odnaleźć na stronie https://dane.imgw.pl